Time;durP1;ratioP1;P1;durP2;ratioP2;P2;SDS_P1;SDS_P2;PMS_P1;PMS_P2;Temp;Humidity;BMP_temperature;BMP_pressure;BME280_temperature;BME280_humidity;BME280_pressure;Samples;Min_cycle;Max_cycle;Signal;HPM_P1;HPM_P2
2021/04/23 00:27:07;;;;;;;43.00;10.32;;;;;;;;;;4492621;28;20103;-65
2021/04/23 00:29:34;;;;;;;47.30;9.07;;;;;;;;;;4142129;34;20123;-65
2021/04/23 00:34:44;;;;;;;33.67;8.15;;;;;;;;;;4148805;34;20087;-65
2021/04/23 00:37:10;;;;;;;41.22;9.50;;;;;;;;;;4136945;34;20166;-65
2021/04/23 00:39:36;;;;;;;40.58;8.73;;;;;;;;;;4137011;34;20227;-65
2021/04/23 00:42:03;;;;;;;32.45;8.68;;;;;;;;;;4137105;34;20207;-65
2021/04/23 00:44:29;;;;;;;35.17;9.63;;;;;;;;;;4136876;34;20103;-66
2021/04/23 00:46:55;;;;;;;31.83;7.90;;;;;;;;;;4136660;34;20107;-66
2021/04/23 00:49:21;;;;;;;32.67;8.25;;;;;;;;;;4136859;34;20128;-66
2021/04/23 00:51:53;;;;;;;33.15;8.02;;;;;;;;;;4136750;34;20118;-65
2021/04/23 00:54:19;;;;;;;41.75;9.23;;;;;;;;;;4136735;34;20107;-65
2021/04/23 00:56:45;;;;;;;36.92;9.60;;;;;;;;;;4136390;34;20220;-65
2021/04/23 00:59:12;;;;;;;35.88;9.25;;;;;;;;;;4136750;34;20222;-65
2021/04/23 01:01:46;;;;;;;32.53;8.48;;;;;;;;;;4136732;34;20127;-65
2021/04/23 01:04:13;;;;;;;45.55;9.63;;;;;;;;;;4136912;34;20115;-65
2021/04/23 01:06:39;;;;;;;36.03;9.63;;;;;;;;;;4136646;34;20104;-65
2021/04/23 01:09:16;;;;;;;36.78;9.57;;;;;;;;;;4136811;34;20207;-65
2021/04/23 01:11:42;;;;;;;34.15;9.30;;;;;;;;;;4136767;34;20103;-65
2021/04/23 01:14:08;;;;;;;35.63;9.23;;;;;;;;;;4136929;34;20139;-65
2021/04/23 01:16:34;;;;;;;24.83;8.25;;;;;;;;;;4136455;34;20113;-65
2021/04/23 01:19:00;;;;;;;36.42;9.70;;;;;;;;;;4136505;34;20615;-65
2021/04/23 01:21:30;;;;;;;34.33;9.43;;;;;;;;;;4136457;34;20104;-65
2021/04/23 01:23:57;;;;;;;33.15;9.13;;;;;;;;;;4124192;34;20104;-65
2021/04/23 01:26:25;;;;;;;41.10;9.50;;;;;;;;;;4136255;34;20123;-65
2021/04/23 01:28:51;;;;;;;39.63;9.68;;;;;;;;;;4123700;34;20477;-65
2021/04/23 01:31:18;;;;;;;33.30;8.73;;;;;;;;;;4136378;34;20130;-65
2021/04/23 01:33:46;;;;;;;33.78;9.60;;;;;;;;;;4136314;34;20459;-65
2021/04/23 01:36:15;;;;;;;41.97;9.02;;;;;;;;;;4136561;34;20518;-65
2021/04/23 01:38:42;;;;;;;43.00;9.77;;;;;;;;;;4124345;34;20211;-65
2021/04/23 01:41:08;;;;;;;38.58;9.80;;;;;;;;;;4136208;34;20130;-65
2021/04/23 01:43:34;;;;;;;35.70;8.65;;;;;;;;;;4138205;34;20120;-66
2021/04/23 01:46:00;;;;;;;33.80;10.70;;;;;;;;;;4137568;34;20139;-65
2021/04/23 01:48:26;;;;;;;37.85;10.50;;;;;;;;;;4136760;34;20119;-65
2021/04/23 01:50:52;;;;;;;36.70;9.52;;;;;;;;;;4123783;34;20473;-66
2021/04/23 01:53:18;;;;;;;45.30;9.57;;;;;;;;;;4136148;34;20150;-65
2021/04/23 01:55:44;;;;;;;42.13;11.38;;;;;;;;;;4136051;34;20218;-65
2021/04/23 01:58:10;;;;;;;38.47;9.93;;;;;;;;;;4135993;34;20224;-66
2021/04/23 02:00:47;;;;;;;34.50;9.02;;;;;;;;;;4136474;34;20131;-65
2021/04/23 02:03:13;;;;;;;39.13;10.05;;;;;;;;;;4147755;34;20103;-65
2021/04/23 02:05:39;;;;;;;41.00;9.50;;;;;;;;;;4149808;34;20142;-65
2021/04/23 02:08:06;;;;;;;44.10;13.15;;;;;;;;;;4149448;34;20190;-66
2021/04/23 02:10:44;;;;;;;43.15;9.05;;;;;;;;;;4151558;34;20196;-65
2021/04/23 02:13:10;;;;;;;37.08;10.13;;;;;;;;;;4151693;34;20122;-65
2021/04/23 02:15:36;;;;;;;39.13;9.93;;;;;;;;;;4151416;34;20238;-65
2021/04/23 02:18:03;;;;;;;40.17;10.57;;;;;;;;;;4151401;34;20532;-65
2021/04/23 02:20:32;;;;;;;52.83;12.70;;;;;;;;;;4151616;34;20103;-65
2021/04/23 02:22:58;;;;;;;42.45;9.27;;;;;;;;;;4139152;34;20468;-65
2021/04/23 02:25:25;;;;;;;44.15;9.75;;;;;;;;;;4151545;34;20137;-65
2021/04/23 02:27:51;;;;;;;40.72;10.63;;;;;;;;;;4136752;34;20208;-65
2021/04/23 02:30:22;;;;;;;38.80;10.23;;;;;;;;;;4137961;34;20126;-66
2021/04/23 02:32:48;;;;;;;47.53;11.85;;;;;;;;;;4138072;34;20210;-65
2021/04/23 02:35:15;;;;;;;42.50;9.82;;;;;;;;;;4137925;34;20335;-66
2021/04/23 02:37:40;;;;;;;40.47;9.77;;;;;;;;;;4138060;34;20115;-66
2021/04/23 02:40:08;;;;;;;44.60;10.23;;;;;;;;;;4125642;34;20539;-65
2021/04/23 02:42:34;;;;;;;52.55;10.55;;;;;;;;;;4137786;34;20115;-66
2021/04/23 02:45:00;;;;;;;46.30;9.90;;;;;;;;;;4137840;34;20542;-66
2021/04/23 02:47:26;;;;;;;38.63;10.20;;;;;;;;;;4137876;34;20112;-66
2021/04/23 02:49:52;;;;;;;43.95;11.25;;;;;;;;;;4138003;34;20212;-66
2021/04/23 02:52:18;;;;;;;41.70;11.57;;;;;;;;;;4125497;34;20134;-67
2021/04/23 02:54:44;;;;;;;47.90;10.82;;;;;;;;;;4137677;34;20127;-67
2021/04/23 02:57:10;;;;;;;54.92;11.20;;;;;;;;;;4138014;34;20619;-66
2021/04/23 02:59:36;;;;;;;41.28;10.50;;;;;;;;;;4137728;34;20131;-71
2021/04/23 03:02:02;;;;;;;54.03;11.27;;;;;;;;;;4137509;34;20130;-65
2021/04/23 03:04:28;;;;;;;49.58;10.63;;;;;;;;;;4137686;34;20131;-66
2021/04/23 03:06:54;;;;;;;54.95;11.27;;;;;;;;;;4137298;34;20204;-67
2021/04/23 03:09:20;;;;;;;47.03;11.20;;;;;;;;;;4144096;34;20095;-67
2021/04/23 03:11:46;;;;;;;56.75;13.55;;;;;;;;;;4145806;34;20448;-66
2021/04/23 03:14:12;;;;;;;59.72;13.00;;;;;;;;;;4125202;34;20130;-65
2021/04/23 03:16:42;;;;;;;50.97;10.90;;;;;;;;;;4137541;34;20167;-66
2021/04/23 03:19:18;;;;;;;49.33;12.35;;;;;;;;;;4137737;34;20108;-66
2021/04/23 03:21:44;;;;;;;56.45;11.55;;;;;;;;;;4137432;34;20139;-65
2021/04/23 03:24:11;;;;;;;46.88;11.25;;;;;;;;;;4140442;34;20126;-66
2021/04/23 03:26:37;;;;;;;53.53;11.32;;;;;;;;;;4150722;34;20198;-66
2021/04/23 03:29:04;;;;;;;41.72;10.93;;;;;;;;;;4150804;34;20620;-66
2021/04/23 03:31:30;;;;;;;42.95;10.73;;;;;;;;;;4156313;34;20123;-65
2021/04/23 03:33:56;;;;;;;45.17;10.43;;;;;;;;;;4156499;34;20210;-65
2021/04/23 03:36:22;;;;;;;52.13;11.30;;;;;;;;;;4158145;34;20123;-67
2021/04/23 03:38:48;;;;;;;52.97;12.00;;;;;;;;;;4146803;34;20125;-65
2021/04/23 03:41:16;;;;;;;58.63;13.45;;;;;;;;;;4149398;34;20199;-66
2021/04/23 03:43:42;;;;;;;52.78;10.50;;;;;;;;;;4137766;34;20107;-66
2021/04/23 03:46:10;;;;;;;50.42;11.07;;;;;;;;;;4125614;34;20191;-66
2021/04/23 03:48:36;;;;;;;51.63;11.68;;;;;;;;;;4138257;34;20123;-66
2021/04/23 03:51:05;;;;;;;44.55;10.98;;;;;;;;;;4137091;34;20139;-66
2021/04/23 03:53:31;;;;;;;38.80;10.80;;;;;;;;;;4143318;34;20079;-67
2021/04/23 03:55:57;;;;;;;44.60;11.88;;;;;;;;;;4133160;34;20107;-66
2021/04/23 03:58:23;;;;;;;47.28;13.15;;;;;;;;;;4150880;34;20272;-66
2021/04/23 04:00:57;;;;;;;48.47;12.80;;;;;;;;;;4138402;34;20176;-66
2021/04/23 04:03:24;;;;;;;48.90;11.95;;;;;;;;;;4137313;34;20111;-67
2021/04/23 04:05:50;;;;;;;52.55;12.15;;;;;;;;;;4124891;34;20099;-66
2021/04/23 04:08:15;;;;;;;56.42;11.20;;;;;;;;;;4137091;34;20151;-67
2021/04/23 04:10:42;;;;;;;60.42;13.70;;;;;;;;;;4137072;34;20131;-67
2021/04/23 04:13:08;;;;;;;61.17;11.82;;;;;;;;;;4137062;34;20133;-67
2021/04/23 04:15:34;;;;;;;50.97;11.12;;;;;;;;;;4136968;34;20641;-67
2021/04/23 04:18:00;;;;;;;52.17;11.85;;;;;;;;;;4137081;34;20126;-67
2021/04/23 04:20:27;;;;;;;51.35;12.40;;;;;;;;;;4136929;34;20489;-67
2021/04/23 04:22:53;;;;;;;66.55;12.07;;;;;;;;;;4136926;34;20092;-67
2021/04/23 04:25:24;;;;;;;49.38;11.48;;;;;;;;;;4136819;34;20124;-67
2021/04/23 04:27:50;;;;;;;59.85;12.60;;;;;;;;;;4136859;34;20120;-66
2021/04/23 04:30:17;;;;;;;63.53;14.27;;;;;;;;;;4136981;34;20206;-66
2021/04/23 04:32:43;;;;;;;55.25;12.30;;;;;;;;;;4136622;34;20099;-66
2021/04/23 04:35:09;;;;;;;51.92;11.48;;;;;;;;;;4137223;34;20120;-67
2021/04/23 04:37:35;;;;;;;51.17;10.85;;;;;;;;;;4137162;34;20533;-66
2021/04/23 04:40:01;;;;;;;47.72;11.43;;;;;;;;;;4136924;34;20124;-67
2021/04/23 04:42:27;;;;;;;53.35;11.02;;;;;;;;;;4137387;34;20138;-67
2021/04/23 04:44:53;;;;;;;48.58;9.68;;;;;;;;;;4143036;34;20116;-66
2021/04/23 04:47:19;;;;;;;51.33;10.13;;;;;;;;;;4140531;34;20583;-66
2021/04/23 04:49:45;;;;;;;56.15;12.23;;;;;;;;;;4127953;34;20153;-66
2021/04/23 04:52:10;;;;;;;58.50;12.55;;;;;;;;;;4141674;34;20207;-65
2021/04/23 04:54:36;;;;;;;65.20;12.80;;;;;;;;;;4128750;34;20548;-66
2021/04/23 04:57:02;;;;;;;61.13;12.40;;;;;;;;;;4126683;34;20535;-66
2021/04/23 04:59:28;;;;;;;47.53;11.63;;;;;;;;;;4136857;34;20113;-66
2021/04/23 05:01:54;;;;;;;54.05;11.73;;;;;;;;;;4137166;34;20127;-65
2021/04/23 05:04:20;;;;;;;69.45;12.13;;;;;;;;;;4137062;34;20551;-66
2021/04/23 05:06:46;;;;;;;62.47;12.18;;;;;;;;;;4136971;34;20188;-66
2021/04/23 05:09:12;;;;;;;69.65;12.43;;;;;;;;;;4125061;34;20483;-65
2021/04/23 05:11:38;;;;;;;58.38;13.02;;;;;;;;;;4138335;34;20216;-65
2021/04/23 05:14:04;;;;;;;63.03;12.48;;;;;;;;;;4137165;34;20569;-66
2021/04/23 05:16:30;;;;;;;72.12;13.52;;;;;;;;;;4137093;34;20100;-66
2021/04/23 05:18:56;;;;;;;71.18;11.93;;;;;;;;;;4124182;34;20123;-66
2021/04/23 05:21:22;;;;;;;64.40;12.40;;;;;;;;;;4136781;34;20216;-65
2021/04/23 05:23:48;;;;;;;60.05;12.50;;;;;;;;;;4124295;34;20135;-66
2021/04/23 05:26:14;;;;;;;70.53;13.43;;;;;;;;;;4140620;34;20520;-66
2021/04/23 05:28:39;;;;;;;63.45;11.35;;;;;;;;;;4137253;34;20128;-66
2021/04/23 05:31:05;;;;;;;56.83;12.90;;;;;;;;;;4149790;34;20562;-66
2021/04/23 05:33:31;;;;;;;63.53;13.25;;;;;;;;;;4137906;34;20536;-66
2021/04/23 05:35:57;;;;;;;84.85;17.37;;;;;;;;;;4149883;34;20533;-65
2021/04/23 05:38:23;;;;;;;77.82;12.98;;;;;;;;;;4149855;34;20223;-66
2021/04/23 05:40:49;;;;;;;64.53;12.18;;;;;;;;;;4150275;34;20130;-65
2021/04/23 05:43:15;;;;;;;68.57;11.25;;;;;;;;;;4149987;34;20142;-65
2021/04/23 05:45:42;;;;;;;66.47;12.73;;;;;;;;;;4139668;34;20119;-66
2021/04/23 05:48:08;;;;;;;86.70;14.45;;;;;;;;;;4152046;34;20128;-65
2021/04/23 05:50:37;;;;;;;78.55;15.20;;;;;;;;;;4152174;34;20459;-66
2021/04/23 05:53:05;;;;;;;98.60;16.23;;;;;;;;;;4130405;34;20135;-65
2021/04/23 05:55:31;;;;;;;99.00;18.23;;;;;;;;;;4138252;34;20535;-66
2021/04/23 05:57:58;;;;;;;81.95;14.87;;;;;;;;;;4126028;34;20126;-65
2021/04/23 06:00:25;;;;;;;72.87;14.73;;;;;;;;;;4138111;34;20118;-65
2021/04/23 06:02:51;;;;;;;70.03;15.90;;;;;;;;;;4138114;34;20191;-65
2021/04/23 06:05:18;;;;;;;74.37;18.65;;;;;;;;;;4138300;34;20150;-65
2021/04/23 06:07:44;;;;;;;98.50;22.10;;;;;;;;;;4138009;34;20138;-65
2021/04/23 06:10:11;;;;;;;84.47;20.33;;;;;;;;;;4138255;34;20151;-65
2021/04/23 06:12:37;;;;;;;158.82;30.42;;;;;;;;;;4138044;34;20204;-65
2021/04/23 06:15:04;;;;;;;108.60;28.92;;;;;;;;;;4138022;34;20127;-66
2021/04/23 06:17:30;;;;;;;93.65;27.87;;;;;;;;;;4138275;34;20115;-65
2021/04/23 06:19:56;;;;;;;93.22;28.25;;;;;;;;;;4138343;34;20103;-66
2021/04/23 06:22:22;;;;;;;90.30;23.95;;;;;;;;;;4138190;34;20107;-67
2021/04/23 06:24:48;;;;;;;92.85;22.98;;;;;;;;;;4138159;34;20114;-68
2021/04/23 06:27:14;;;;;;;100.20;30.92;;;;;;;;;;4137854;34;20160;-67
2021/04/23 06:29:40;;;;;;;108.05;34.08;;;;;;;;;;4125578;34;20096;-65
2021/04/23 06:32:06;;;;;;;99.75;30.42;;;;;;;;;;4137859;34;20220;-65
2021/04/23 06:34:35;;;;;;;124.57;27.30;;;;;;;;;;4137833;34;20100;-66
2021/04/23 06:37:01;;;;;;;107.95;32.33;;;;;;;;;;4125749;34;20132;-68
2021/04/23 06:39:27;;;;;;;117.50;34.85;;;;;;;;;;4138091;34;20115;-68
2021/04/23 06:41:53;;;;;;;124.78;35.67;;;;;;;;;;4137836;34;20103;-68
2021/04/23 06:44:19;;;;;;;131.12;34.20;;;;;;;;;;4138054;34;20107;-68
2021/04/23 06:46:45;;;;;;;94.68;29.65;;;;;;;;;;4137733;34;20102;-68
2021/04/23 06:49:12;;;;;;;100.03;31.92;;;;;;;;;;4137828;34;20115;-68
2021/04/23 06:51:37;;;;;;;96.68;32.08;;;;;;;;;;4137582;34;20111;-67
2021/04/23 06:54:04;;;;;;;92.85;27.87;;;;;;;;;;4125582;34;20227;-67
2021/04/23 06:56:30;;;;;;;92.15;28.42;;;;;;;;;;4124867;34;20110;-67
2021/04/23 06:58:56;;;;;;;98.78;27.27;;;;;;;;;;4137786;34;20217;-67
2021/04/23 07:01:22;;;;;;;114.80;26.70;;;;;;;;;;4137659;34;20112;-66
2021/04/23 07:03:48;;;;;;;110.65;27.67;;;;;;;;;;4137610;34;20148;-68
2021/04/23 07:06:14;;;;;;;98.07;24.65;;;;;;;;;;4137611;34;20107;-67
2021/04/23 07:08:40;;;;;;;111.75;28.23;;;;;;;;;;4125211;34;20122;-68
2021/04/23 07:11:08;;;;;;;102.85;30.10;;;;;;;;;;4137701;34;20146;-67
2021/04/23 07:13:34;;;;;;;102.60;26.80;;;;;;;;;;4125310;34;20114;-67
2021/04/23 07:16:00;;;;;;;112.70;27.35;;;;;;;;;;4137509;34;20123;-68
2021/04/23 07:18:27;;;;;;;106.53;26.30;;;;;;;;;;4138393;34;20106;-67
2021/04/23 07:20:59;;;;;;;119.00;26.30;;;;;;;;;;4139015;34;20451;-67
2021/04/23 07:23:27;;;;;;;106.32;28.00;;;;;;;;;;4125795;34;20115;-67
2021/04/23 07:25:53;;;;;;;127.53;27.52;;;;;;;;;;4125252;34;20130;-65
2021/04/23 07:28:18;;;;;;;125.22;29.00;;;;;;;;;;4137686;34;20155;-66
2021/04/23 07:30:44;;;;;;;113.20;28.85;;;;;;;;;;4125154;34;20228;-65
2021/04/23 07:33:13;;;;;;;119.53;28.20;;;;;;;;;;4125044;34;20127;-64
2021/04/23 07:35:42;;;;;;;117.72;27.75;;;;;;;;;;4137652;34;20208;-65
2021/04/23 07:38:09;;;;;;;110.68;30.50;;;;;;;;;;4137387;34;20095;-65
2021/04/23 07:40:35;;;;;;;111.90;29.67;;;;;;;;;;4137437;34;20120;-66
2021/04/23 07:43:01;;;;;;;90.62;21.90;;;;;;;;;;4137180;34;20230;-65
2021/04/23 07:45:27;;;;;;;94.15;22.08;;;;;;;;;;4137329;34;20127;-65
2021/04/23 07:47:53;;;;;;;103.78;20.02;;;;;;;;;;4137481;34;20212;-65
2021/04/23 07:50:20;;;;;;;103.43;22.77;;;;;;;;;;4137613;34;20530;-65
2021/04/23 07:52:46;;;;;;;93.72;20.83;;;;;;;;;;4124886;34;20123;-65
2021/04/23 07:55:13;;;;;;;110.97;24.10;;;;;;;;;;4137220;34;20461;-66
2021/04/23 07:57:39;;;;;;;91.55;20.37;;;;;;;;;;4137149;34;20095;-66
2021/04/23 08:00:09;;;;;;;93.35;20.33;;;;;;;;;;4137209;34;20157;-65
2021/04/23 08:02:36;;;;;;;97.47;20.98;;;;;;;;;;4137178;34;20562;-64
2021/04/23 08:05:02;;;;;;;107.35;22.23;;;;;;;;;;4137083;34;20108;-65
2021/04/23 08:07:28;;;;;;;100.87;21.98;;;;;;;;;;4136288;34;20099;-66
2021/04/23 08:09:54;;;;;;;92.95;17.45;;;;;;;;;;4137127;34;20227;-67
2021/04/23 08:12:20;;;;;;;65.70;13.82;;;;;;;;;;4124805;34;20096;-67
2021/04/23 08:14:46;;;;;;;91.18;18.60;;;;;;;;;;4124481;34;20146;-65
2021/04/23 08:17:12;;;;;;;76.45;14.45;;;;;;;;;;4137115;34;20118;-64
2021/04/23 08:19:37;;;;;;;102.80;16.55;;;;;;;;;;4137178;34;20142;-66
2021/04/23 08:22:04;;;;;;;71.15;12.60;;;;;;;;;;4136924;34;20629;-65
2021/04/23 08:24:31;;;;;;;80.03;14.85;;;;;;;;;;4137040;34;20120;-65
2021/04/23 08:26:57;;;;;;;76.60;16.20;;;;;;;;;;4137165;34;20196;-65
2021/04/23 08:29:23;;;;;;;83.32;13.80;;;;;;;;;;4136868;34;20544;-66
2021/04/23 08:31:48;;;;;;;82.10;14.00;;;;;;;;;;4136885;34;20132;-66
2021/04/23 08:34:14;;;;;;;87.37;15.80;;;;;;;;;;4137108;34;20210;-66
2021/04/23 08:36:40;;;;;;;80.62;12.45;;;;;;;;;;4137099;34;20219;-63
2021/04/23 08:39:07;;;;;;;80.87;16.75;;;;;;;;;;4137082;34;20129;-65
2021/04/23 08:41:34;;;;;;;101.47;16.37;;;;;;;;;;4136896;34;20559;-65
2021/04/23 08:44:00;;;;;;;90.82;19.00;;;;;;;;;;4136899;34;20196;-65
2021/04/23 08:46:29;;;;;;;90.78;15.52;;;;;;;;;;4136783;34;20130;-65
2021/04/23 08:48:56;;;;;;;85.97;17.25;;;;;;;;;;4124568;34;20170;-64
2021/04/23 08:51:22;;;;;;;74.35;10.63;;;;;;;;;;4136745;34;20558;-65
2021/04/23 08:53:50;;;;;;;71.07;12.65;;;;;;;;;;4124236;34;20118;-66
2021/04/23 08:56:16;;;;;;;81.93;13.50;;;;;;;;;;4136772;34;20225;-66
2021/04/23 08:58:42;;;;;;;95.20;15.48;;;;;;;;;;4136937;34;20147;-68
2021/04/23 09:01:08;;;;;;;72.15;13.20;;;;;;;;;;4136570;34;20198;-65
2021/04/23 09:03:34;;;;;;;76.60;13.50;;;;;;;;;;4136668;34;20206;-65
2021/04/23 09:06:10;;;;;;;90.80;15.45;;;;;;;;;;4136601;34;20538;-65
2021/04/23 09:08:38;;;;;;;82.30;12.10;;;;;;;;;;4136508;34;20123;-65
2021/04/23 09:11:18;;;;;;;80.03;12.68;;;;;;;;;;4124024;34;20118;-67
2021/04/23 09:14:03;;;;;;;85.43;13.93;;;;;;;;;;4136830;34;20100;-67
2021/04/23 09:17:02;;;;;;;80.82;13.68;;;;;;;;;;4136625;34;20622;-67
2021/04/23 09:19:33;;;;;;;76.97;13.07;;;;;;;;;;4103511;34;20152;-67
2021/04/23 09:22:04;;;;;;;78.72;15.85;;;;;;;;;;4140833;34;20152;-65
2021/04/23 09:24:32;;;;;;;70.93;11.45;;;;;;;;;;4142997;34;20107;-68
2021/04/23 09:27:00;;;;;;;63.65;11.77;;;;;;;;;;4132931;34;20131;-69
2021/04/23 09:29:28;;;;;;;63.55;11.70;;;;;;;;;;4139337;34;20207;-67
2021/04/23 09:31:54;;;;;;;66.32;11.00;;;;;;;;;;4153558;34;20141;-67
2021/04/23 09:34:21;;;;;;;97.03;14.70;;;;;;;;;;4140747;34;20119;-67
2021/04/23 09:36:48;;;;;;;64.82;11.00;;;;;;;;;;4140704;34;20115;-67
2021/04/23 09:39:24;;;;;;;53.63;11.15;;;;;;;;;;4128887;34;20106;-66
2021/04/23 09:42:01;;;;;;;49.72;7.93;;;;;;;;;;4149935;34;20118;-67
2021/04/23 09:44:32;;;;;;;49.58;11.77;;;;;;;;;;4141743;34;20111;-69
2021/04/23 09:47:11;;;;;;;59.35;12.68;;;;;;;;;;4154181;34;20203;-69
2021/04/23 09:49:37;;;;;;;43.42;8.93;;;;;;;;;;4154093;34;20467;-67
2021/04/23 09:52:05;;;;;;;45.92;9.27;;;;;;;;;;4154094;34;20540;-69
2021/04/23 09:54:30;;;;;;;62.15;12.50;;;;;;;;;;4154137;34;20104;-67
2021/04/23 09:56:57;;;;;;;57.08;11.07;;;;;;;;;;4141357;34;20122;-68
2021/04/23 09:59:27;;;;;;;49.20;11.40;;;;;;;;;;4142895;34;20217;-68
2021/04/23 10:01:55;;;;;;;44.72;8.55;;;;;;;;;;4140530;34;20111;-66
2021/04/23 10:04:32;;;;;;;41.10;6.68;;;;;;;;;;4140415;34;20116;-66
2021/04/23 10:07:15;;;;;;;36.10;8.95;;;;;;;;;;4140754;34;20119;-68
2021/04/23 10:10:12;;;;;;;45.75;8.45;;;;;;;;;;4140364;34;20115;-68
2021/04/23 10:12:39;;;;;;;49.70;10.35;;;;;;;;;;4139993;34;20194;-68
2021/04/23 10:15:26;;;;;;;41.25;7.75;;;;;;;;;;4140343;34;20127;-69
2021/04/23 10:17:54;;;;;;;48.95;8.45;;;;;;;;;;4140592;34;20134;-68
2021/04/23 10:20:28;;;;;;;49.45;8.00;;;;;;;;;;4128370;34;20494;-68
2021/04/23 10:22:54;;;;;;;41.75;7.05;;;;;;;;;;4138909;34;20537;-69
2021/04/23 10:25:21;;;;;;;30.88;7.37;;;;;;;;;;4140581;34;20115;-68
2021/04/23 10:27:47;;;;;;;47.40;9.15;;;;;;;;;;4140034;34;20107;-68
2021/04/23 10:30:21;;;;;;;54.15;8.68;;;;;;;;;;4138529;34;20107;-69
2021/04/23 10:32:48;;;;;;;45.65;9.57;;;;;;;;;;4137926;34;20502;-66
2021/04/23 10:35:14;;;;;;;51.15;8.13;;;;;;;;;;4136125;34;20139;-66
2021/04/23 10:37:41;;;;;;;33.92;7.22;;;;;;;;;;4134834;34;20119;-66
2021/04/23 10:40:08;;;;;;;39.33;10.25;;;;;;;;;;4125247;34;20119;-68
2021/04/23 10:42:51;;;;;;;36.20;8.75;;;;;;;;;;4137693;34;20184;-66
2021/04/23 10:45:23;;;;;;;38.58;6.90;;;;;;;;;;4137544;34;20088;-67
2021/04/23 10:47:50;;;;;;;37.67;7.25;;;;;;;;;;4137790;34;20512;-67
2021/04/23 10:50:18;;;;;;;28.23;6.47;;;;;;;;;;4137707;34;20613;-67
2021/04/23 10:53:21;;;;;;;55.08;8.38;;;;;;;;;;4141764;34;20456;-67
2021/04/23 10:55:55;;;;;;;40.40;12.57;;;;;;;;;;4130074;34;20123;-67
2021/04/23 10:58:30;;;;;;;28.70;6.35;;;;;;;;;;4125563;34;20456;-67
2021/04/23 11:00:57;;;;;;;40.37;9.03;;;;;;;;;;4137571;34;20107;-67
2021/04/23 11:03:27;;;;;;;38.20;7.20;;;;;;;;;;4125117;34;20295;-67
2021/04/23 11:05:53;;;;;;;40.12;6.97;;;;;;;;;;4124977;34;20192;-67
2021/04/23 11:08:19;;;;;;;20.15;5.93;;;;;;;;;;4137634;34;20657;-66
2021/04/23 11:11:08;;;;;;;33.33;7.65;;;;;;;;;;4137728;34;20123;-68
2021/04/23 11:13:35;;;;;;;29.85;5.93;;;;;;;;;;4137824;34;20122;-67
2021/04/23 11:16:23;;;;;;;33.75;7.32;;;;;;;;;;4137367;34;20447;-68
2021/04/23 11:18:58;;;;;;;41.53;6.62;;;;;;;;;;4137800;34;20107;-68
2021/04/23 11:21:44;;;;;;;35.17;6.97;;;;;;;;;;4137198;34;20535;-69
2021/04/23 11:24:19;;;;;;;6.95;2.58;;;;;;;;;;4124707;34;20201;-68
2021/04/23 11:26:57;;;;;;;17.35;4.65;;;;;;;;;;4137309;34;20116;-69
2021/04/23 11:29:31;;;;;;;20.95;6.12;;;;;;;;;;4137247;34;20135;-67
2021/04/23 11:32:16;;;;;;;27.98;7.12;;;;;;;;;;4137272;34;20232;-66
2021/04/23 11:34:44;;;;;;;35.50;9.85;;;;;;;;;;4137260;34;20222;-67
2021/04/23 11:37:14;;;;;;;27.67;6.78;;;;;;;;;;4137679;34;20092;-66
2021/04/23 11:39:47;;;;;;;34.38;5.50;;;;;;;;;;4135892;34;20123;-67
2021/04/23 11:42:28;;;;;;;44.40;7.53;;;;;;;;;;4136330;34;20207;-67
2021/04/23 11:44:55;;;;;;;31.40;5.75;;;;;;;;;;4137285;34;20227;-67
2021/04/23 11:47:27;;;;;;;22.98;4.80;;;;;;;;;;4137308;34;20100;-67
2021/04/23 11:50:21;;;;;;;37.53;6.37;;;;;;;;;;4135746;34;20162;-66
2021/04/23 11:53:03;;;;;;;40.47;7.85;;;;;;;;;;4137139;34;20099;-66
2021/04/23 11:55:31;;;;;;;39.20;6.85;;;;;;;;;;4137026;34;20536;-66
2021/04/23 11:58:10;;;;;;;36.53;7.50;;;;;;;;;;4137178;34;20529;-66
2021/04/23 12:00:38;;;;;;;42.47;7.72;;;;;;;;;;4137305;34;20166;-66
2021/04/23 12:03:06;;;;;;;31.30;7.70;;;;;;;;;;4124392;34;20211;-66
2021/04/23 12:05:42;;;;;;;37.53;8.02;;;;;;;;;;4124610;34;20091;-66
2021/04/23 12:08:18;;;;;;;48.38;6.82;;;;;;;;;;4124777;34;20208;-67
2021/04/23 12:10:45;;;;;;;42.22;7.57;;;;;;;;;;4136726;34;20096;-66
2021/04/23 12:13:18;;;;;;;31.33;6.30;;;;;;;;;;4136434;34;20130;-66
2021/04/23 12:15:45;;;;;;;50.75;7.55;;;;;;;;;;4136413;34;20137;-65
2021/04/23 12:18:12;;;;;;;51.33;9.77;;;;;;;;;;4124614;34;20139;-65
2021/04/23 12:20:49;;;;;;;37.55;7.47;;;;;;;;;;4136734;34;20114;-65
2021/04/23 12:23:20;;;;;;;50.38;9.43;;;;;;;;;;4137049;34;20103;-65
2021/04/23 12:25:50;;;;;;;40.53;6.90;;;;;;;;;;4136854;34;20103;-65
2021/04/23 12:28:18;;;;;;;37.75;7.37;;;;;;;;;;4136951;34;20629;-65
2021/04/23 12:30:44;;;;;;;56.20;10.52;;;;;;;;;;4124801;34;20099;-65
2021/04/23 12:33:10;;;;;;;33.05;7.45;;;;;;;;;;4136043;34;20218;-64
2021/04/23 12:35:42;;;;;;;32.72;5.78;;;;;;;;;;4136820;34;20116;-64
2021/04/23 12:38:09;;;;;;;29.67;5.20;;;;;;;;;;4136870;34;20463;-64
2021/04/23 12:40:43;;;;;;;43.42;8.27;;;;;;;;;;4136890;34;20118;-65
2021/04/23 12:43:13;;;;;;;42.33;8.90;;;;;;;;;;4137093;34;20134;-65
2021/04/23 12:45:44;;;;;;;47.05;6.85;;;;;;;;;;4136766;34;20112;-65
2021/04/23 12:48:11;;;;;;;46.67;6.72;;;;;;;;;;4136610;34;20194;-65
2021/04/23 12:50:36;;;;;;;45.08;8.07;;;;;;;;;;4136802;34;20114;-65
2021/04/23 12:53:03;;;;;;;36.75;6.22;;;;;;;;;;4134949;34;20139;-66
2021/04/23 12:55:30;;;;;;;52.67;7.28;;;;;;;;;;4124382;34;20628;-71
2021/04/23 12:57:56;;;;;;;49.92;6.47;;;;;;;;;;4126492;34;20118;-64
2021/04/23 13:00:22;;;;;;;48.40;7.85;;;;;;;;;;4137554;34;20674;-64
2021/04/23 13:02:49;;;;;;;53.42;8.85;;;;;;;;;;4143699;34;20107;-67
2021/04/23 13:05:19;;;;;;;38.00;6.22;;;;;;;;;;4136110;34;20519;-67
2021/04/23 13:07:59;;;;;;;38.65;7.87;;;;;;;;;;4145844;34;20099;-67
2021/04/23 13:10:25;;;;;;;40.03;5.62;;;;;;;;;;4136832;34;20119;-66
2021/04/23 13:13:06;;;;;;;16.90;5.18;;;;;;;;;;4136413;34;20107;-68
2021/04/23 13:15:41;;;;;;;23.95;5.07;;;;;;;;;;4125464;34;20103;-67
2021/04/23 13:18:15;;;;;;;34.10;6.37;;;;;;;;;;4143562;34;20110;-68
2021/04/23 13:20:54;;;;;;;32.65;7.18;;;;;;;;;;4150285;34;20116;-68
2021/04/23 13:23:40;;;;;;;21.33;6.37;;;;;;;;;;4131161;34;20492;-69
2021/04/23 13:26:09;;;;;;;;;;;;;;;;;;4136882;34;20131;-67
2021/04/23 13:28:42;;;;;;;33.42;5.78;;;;;;;;;;4135800;34;20031;-68
2021/04/23 13:31:10;;;;;;;34.65;5.87;;;;;;;;;;4125388;34;20112;-68
2021/04/23 13:33:39;;;;;;;42.08;6.75;;;;;;;;;;4136693;34;20206;-66
2021/04/23 13:36:18;;;;;;;30.15;5.55;;;;;;;;;;4135324;34;20460;-65
2021/04/23 13:38:52;;;;;;;35.35;7.22;;;;;;;;;;4122717;34;20136;-65
2021/04/23 13:41:32;;;;;;;36.08;6.78;;;;;;;;;;4136243;34;20183;-66
2021/04/23 13:43:58;;;;;;;38.72;9.90;;;;;;;;;;4122867;34;20205;-69
2021/04/23 13:46:35;;;;;;;32.35;6.30;;;;;;;;;;4136105;34;20119;-69
2021/04/23 13:49:03;;;;;;;32.88;6.45;;;;;;;;;;4135507;34;20214;-69
2021/04/23 13:51:33;;;;;;;32.72;5.37;;;;;;;;;;4143772;34;20098;-69
2021/04/23 13:54:01;;;;;;;28.50;5.85;;;;;;;;;;4148850;34;20135;-69
2021/04/23 13:56:38;;;;;;;26.33;6.15;;;;;;;;;;4134838;34;20115;-68
2021/04/23 13:59:07;;;;;;;31.40;6.05;;;;;;;;;;4136951;34;20111;-69
2021/04/23 14:01:39;;;;;;;27.87;7.20;;;;;;;;;;4138257;34;20096;-69
2021/04/23 14:04:09;;;;;;;15.13;4.28;;;;;;;;;;4136282;34;20190;-69
2021/04/23 14:06:35;;;;;;;28.83;5.05;;;;;;;;;;4125747;34;20119;-70
2021/04/23 14:09:01;;;;;;;32.05;8.10;;;;;;;;;;4135039;34;20129;-69
2021/04/23 14:11:27;;;;;;;36.53;7.68;;;;;;;;;;4137654;34;20115;-71
2021/04/23 14:13:56;;;;;;;24.87;5.60;;;;;;;;;;4136743;34;20098;-69
2021/04/23 14:16:23;;;;;;;34.67;6.97;;;;;;;;;;4138103;34;20143;-69
2021/04/23 14:18:49;;;;;;;33.95;6.30;;;;;;;;;;4136605;34;20135;-70
2021/04/23 14:21:15;;;;;;;35.63;6.40;;;;;;;;;;4123986;34;20112;-65
2021/04/23 14:23:44;;;;;;;29.80;6.25;;;;;;;;;;4146467;34;20156;-67
2021/04/23 14:26:14;;;;;;;26.70;5.82;;;;;;;;;;4140185;34;20224;-66
2021/04/23 14:28:44;;;;;;;32.22;5.65;;;;;;;;;;4137366;34;20139;-68
2021/04/23 14:31:10;;;;;;;23.48;5.75;;;;;;;;;;4150164;34;20119;-68
2021/04/23 14:33:36;;;;;;;28.23;5.65;;;;;;;;;;4138695;34;20127;-68
2021/04/23 14:36:03;;;;;;;35.88;6.40;;;;;;;;;;4151156;34;20235;-69
2021/04/23 14:38:29;;;;;;;28.45;6.68;;;;;;;;;;4151184;34;20182;-69
2021/04/23 14:40:55;;;;;;;33.03;7.03;;;;;;;;;;4151398;34;20134;-68
2021/04/23 14:43:23;;;;;;;26.37;7.30;;;;;;;;;;4151275;34;20635;-66
2021/04/23 14:45:50;;;;;;;30.45;6.22;;;;;;;;;;4138597;34;20106;-67
2021/04/23 14:48:15;;;;;;;32.80;5.22;;;;;;;;;;4151304;34;20119;-67
2021/04/23 14:50:42;;;;;;;23.65;4.45;;;;;;;;;;4138710;34;20238;-68
2021/04/23 14:53:09;;;;;;;37.65;5.28;;;;;;;;;;4143873;34;20198;-67
2021/04/23 14:55:37;;;;;;;37.78;6.25;;;;;;;;;;4139040;34;20507;-66
2021/04/23 14:58:05;;;;;;;40.83;8.02;;;;;;;;;;4143320;34;20119;-65